sensor_id;sensor_type;location;lat;lon;timestamp;pressure;altitude;pressure_sealevel;temperature;humidity
54439;BME280;40347;53.848;27.498;2022-09-03T00:02:59;1020.4;;;9.4;64.2
54439;BME280;40347;53.848;27.498;2022-09-03T00:13:23;1020.4;;;9.8;63.4
54439;BME280;40347;53.848;27.498;2022-09-03T00:18:04;1020.4;;;9.9;63
54439;BME280;40347;53.848;27.498;2022-09-03T00:22:59;1020.4;;;10;62.6
54439;BME280;40347;53.848;27.498;2022-09-03T00:27:58;1020.4;;;9.9;62.5
54439;BME280;40347;53.848;27.498;2022-09-03T00:33:10;1020.4;;;9.8;62.5
54439;BME280;40347;53.848;27.498;2022-09-03T00:38:08;1020.4;;;9.7;62.8
54439;BME280;40347;53.848;27.498;2022-09-03T00:43:02;1020.5;;;9.6;63
54439;BME280;40347;53.848;27.498;2022-09-03T00:48:13;1020.5;;;9.7;62.9
54439;BME280;40347;53.848;27.498;2022-09-03T00:53:02;1020.5;;;9.8;62.7
54439;BME280;40347;53.848;27.498;2022-09-03T00:58:35;1020.5;;;9.8;62.5
54439;BME280;40347;53.848;27.498;2022-09-03T01:03:00;1020.5;;;9.9;62.1
54439;BME280;40347;53.848;27.498;2022-09-03T01:08:41;1020.5;;;10;61.8
54439;BME280;40347;53.848;27.498;2022-09-03T01:13:16;1020.5;;;10.2;61.8
54439;BME280;40347;53.848;27.498;2022-09-03T01:18:05;1020.5;;;10.3;61.5
54439;BME280;40347;53.848;27.498;2022-09-03T01:28:22;1020.6;;;10.7;60.5
54439;BME280;40347;53.848;27.498;2022-09-03T01:33:01;1020.6;;;10.7;60.1
54439;BME280;40347;53.848;27.498;2022-09-03T01:39:04;1020.6;;;10.9;59.9
54439;BME280;40347;53.848;27.498;2022-09-03T01:43:11;1020.6;;;10.9;59.4
54439;BME280;40347;53.848;27.498;2022-09-03T01:53:02;1020.5;;;11.1;59.1
54439;BME280;40347;53.848;27.498;2022-09-03T02:03:08;1020.6;;;11.2;58.9
54439;BME280;40347;53.848;27.498;2022-09-03T02:08:20;1020.5;;;11.3;58.6
54439;BME280;40347;53.848;27.498;2022-09-03T02:13:11;1020.5;;;11.3;58.3
54439;BME280;40347;53.848;27.498;2022-09-03T02:18:09;1020.5;;;11.3;58.2
54439;BME280;40347;53.848;27.498;2022-09-03T02:23:18;1020.5;;;11.3;57.8
54439;BME280;40347;53.848;27.498;2022-09-03T02:28:18;1020.6;;;11.3;57.4
54439;BME280;40347;53.848;27.498;2022-09-03T02:33:08;1020.6;;;11.2;57.5
54439;BME280;40347;53.848;27.498;2022-09-03T02:38:08;1020.6;;;11.1;57.7
54439;BME280;40347;53.848;27.498;2022-09-03T02:43:12;1020.6;;;11;57.8
54439;BME280;40347;53.848;27.498;2022-09-03T02:47:58;1020.6;;;10.9;57.8
54439;BME280;40347;53.848;27.498;2022-09-03T02:53:08;1020.6;;;10.8;58.1
54439;BME280;40347;53.848;27.498;2022-09-03T02:57:58;1020.7;;;10.6;58.5
54439;BME280;40347;53.848;27.498;2022-09-03T03:03:18;1020.7;;;10.4;58.8
54439;BME280;40347;53.848;27.498;2022-09-03T03:07:58;1020.7;;;10.3;59.2
54439;BME280;40347;53.848;27.498;2022-09-03T03:13:08;1020.7;;;10.1;59.4
54439;BME280;40347;53.848;27.498;2022-09-03T03:17:58;1020.7;;;10;59.9
54439;BME280;40347;53.848;27.498;2022-09-03T03:23:01;1020.7;;;9.8;60.5
54439;BME280;40347;53.848;27.498;2022-09-03T03:28:08;1020.7;;;9.7;60.9
54439;BME280;40347;53.848;27.498;2022-09-03T03:33:08;1020.7;;;9.6;61.2
54439;BME280;40347;53.848;27.498;2022-09-03T03:37:58;1020.7;;;9.6;61.4
54439;BME280;40347;53.848;27.498;2022-09-03T03:43:08;1020.7;;;9.5;61.7
54439;BME280;40347;53.848;27.498;2022-09-03T03:48:12;1020.7;;;9.5;61.9
54439;BME280;40347;53.848;27.498;2022-09-03T03:53:08;1020.7;;;9.5;62.2
54439;BME280;40347;53.848;27.498;2022-09-03T03:57:58;1020.7;;;9.7;62.3
54439;BME280;40347;53.848;27.498;2022-09-03T04:02:58;1020.6;;;9.8;62.3
54439;BME280;40347;53.848;27.498;2022-09-03T04:08:00;1020.7;;;10;62.1
54439;BME280;40347;53.848;27.498;2022-09-03T04:13:18;1020.7;;;10.1;61.8
54439;BME280;40347;53.848;27.498;2022-09-03T04:17:58;1020.7;;;10.3;61.6
54439;BME280;40347;53.848;27.498;2022-09-03T04:22:59;1020.7;;;10.4;61
54439;BME280;40347;53.848;27.498;2022-09-03T04:28:22;1020.7;;;10.6;60.3
54439;BME280;40347;53.848;27.498;2022-09-03T04:33:20;1020.7;;;10.8;59.9
54439;BME280;40347;53.848;27.498;2022-09-03T04:38:20;1020.7;;;11;59.2
54439;BME280;40347;53.848;27.498;2022-09-03T04:43:10;1020.8;;;11.3;58.2
54439;BME280;40347;53.848;27.498;2022-09-03T04:48:10;1020.8;;;11.5;57.2
54439;BME280;40347;53.848;27.498;2022-09-03T04:53:10;1020.8;;;11.9;56.6
54439;BME280;40347;53.848;27.498;2022-09-03T04:57:58;1020.7;;;12.3;56.2
54439;BME280;40347;53.848;27.498;2022-09-03T05:02:59;1020.7;;;12.5;55.3
54439;BME280;40347;53.848;27.498;2022-09-03T05:07:58;1020.7;;;12.7;54.7
54439;BME280;40347;53.848;27.498;2022-09-03T05:13:10;1020.8;;;12.8;54.6
54439;BME280;40347;53.848;27.498;2022-09-03T05:17:58;1020.8;;;13;54.5
54439;BME280;40347;53.848;27.498;2022-09-03T05:23:08;1020.8;;;13.2;54.1
54439;BME280;40347;53.848;27.498;2022-09-03T05:28:08;1020.8;;;13.4;54
54439;BME280;40347;53.848;27.498;2022-09-03T05:32:58;1020.8;;;13.6;53.6
54439;BME280;40347;53.848;27.498;2022-09-03T05:38:10;1020.8;;;13.7;53.4
54439;BME280;40347;53.848;27.498;2022-09-03T05:43:32;1020.8;;;13.8;53
54439;BME280;40347;53.848;27.498;2022-09-03T05:48:18;1020.8;;;14;52.5
54439;BME280;40347;53.848;27.498;2022-09-03T05:52:58;1020.8;;;14.3;52.9
54439;BME280;40347;53.848;27.498;2022-09-03T05:58:08;1020.8;;;14.6;52.9
54439;BME280;40347;53.848;27.498;2022-09-03T06:02:58;1020.8;;;14.8;52.8
54439;BME280;40347;53.848;27.498;2022-09-03T06:08:22;1020.8;;;15;51.7
54439;BME280;40347;53.848;27.498;2022-09-03T06:13:20;1020.8;;;15.1;50.9
54439;BME280;40347;53.848;27.498;2022-09-03T06:17:58;1020.9;;;15.2;50.9
54439;BME280;40347;53.848;27.498;2022-09-03T06:22:58;1020.9;;;15.2;50.5
54439;BME280;40347;53.848;27.498;2022-09-03T06:28:08;1020.9;;;15.3;50.1
54439;BME280;40347;53.848;27.498;2022-09-03T06:33:08;1020.9;;;15.5;49.7
54439;BME280;40347;53.848;27.498;2022-09-03T06:38:18;1021;;;15.7;49.6
54439;BME280;40347;53.848;27.498;2022-09-03T06:43:18;1021;;;15.8;49.6
54439;BME280;40347;53.848;27.498;2022-09-03T06:48:08;1021;;;16;49.7
54439;BME280;40347;53.848;27.498;2022-09-03T06:52:58;1021;;;16.3;49.8
54439;BME280;40347;53.848;27.498;2022-09-03T06:58:23;1021;;;16.5;49
54439;BME280;40347;53.848;27.498;2022-09-03T07:02:58;1021;;;16.8;48.7
54439;BME280;40347;53.848;27.498;2022-09-03T07:08:08;1021;;;17.1;48
54439;BME280;40347;53.848;27.498;2022-09-03T07:13:08;1021;;;17.4;48
54439;BME280;40347;53.848;27.498;2022-09-03T07:17:58;1021;;;17.7;47.5
54439;BME280;40347;53.848;27.498;2022-09-03T07:23:18;1021;;;18;46.9
54439;BME280;40347;53.848;27.498;2022-09-03T07:27:58;1021;;;18.3;45.7
54439;BME280;40347;53.848;27.498;2022-09-03T07:33:06;1021;;;18.6;45
54439;BME280;40347;53.848;27.498;2022-09-03T07:38:18;1021;;;18.8;44.6
54439;BME280;40347;53.848;27.498;2022-09-03T07:43:10;1021;;;19.1;45
54439;BME280;40347;53.848;27.498;2022-09-03T07:48:10;1021;;;19.3;44.7
54439;BME280;40347;53.848;27.498;2022-09-03T07:53:18;1021;;;19.6;43.6
54439;BME280;40347;53.848;27.498;2022-09-03T07:58:18;1021;;;19.9;42.7
54439;BME280;40347;53.848;27.498;2022-09-03T08:03:08;1021;;;20.1;42.3
54439;BME280;40347;53.848;27.498;2022-09-03T08:07:59;1021.1;;;20.3;42.1
54439;BME280;40347;53.848;27.498;2022-09-03T08:12:58;1021.1;;;20.4;42.3
54439;BME280;40347;53.848;27.498;2022-09-03T08:18:08;1021.1;;;20.6;41.8
54439;BME280;40347;53.848;27.498;2022-09-03T08:23:22;1021;;;20.6;41.2
54439;BME280;40347;53.848;27.498;2022-09-03T08:27:58;1021;;;20.8;40.2
54439;BME280;40347;53.848;27.498;2022-09-03T08:33:12;1021.1;;;21;40.5
54439;BME280;40347;53.848;27.498;2022-09-03T08:38:10;1021.1;;;21.1;39.7
54439;BME280;40347;53.848;27.498;2022-09-03T08:43:11;1021;;;21.4;39.6
54439;BME280;40347;53.848;27.498;2022-09-03T08:48:32;1021;;;21.5;38.5
54439;BME280;40347;53.848;27.498;2022-09-03T08:53:13;1020.9;;;21.5;38
54439;BME280;40347;53.848;27.498;2022-09-03T08:58:12;1020.9;;;21.6;38.1
54439;BME280;40347;53.848;27.498;2022-09-03T09:03:56;1020.9;;;21.7;38.3
54439;BME280;40347;53.848;27.498;2022-09-03T09:08:02;1020.9;;;21.6;38
54439;BME280;40347;53.848;27.498;2022-09-03T09:13:28;1020.9;;;21.7;38
54439;BME280;40347;53.848;27.498;2022-09-03T09:19:08;1020.9;;;21.7;37.3
54439;BME280;40347;53.848;27.498;2022-09-03T09:23:13;1020.9;;;21.6;37.3
54439;BME280;40347;53.848;27.498;2022-09-03T09:28:23;1020.9;;;21.4;37.7
54439;BME280;40347;53.848;27.498;2022-09-03T09:32:58;1020.9;;;21.4;37.8
54439;BME280;40347;53.848;27.498;2022-09-03T09:37:58;1020.9;;;21.3;38.1
54439;BME280;40347;53.848;27.498;2022-09-03T09:43:09;1020.9;;;21.3;37.8
54439;BME280;40347;53.848;27.498;2022-09-03T09:47:58;1020.9;;;21.1;37.6
54439;BME280;40347;53.848;27.498;2022-09-03T09:53:18;1020.8;;;20.8;37.2
54439;BME280;40347;53.848;27.498;2022-09-03T09:58:06;1020.8;;;20.8;37.7
54439;BME280;40347;53.848;27.498;2022-09-03T10:03:09;1020.8;;;20.9;37.7
54439;BME280;40347;53.848;27.498;2022-09-03T10:07:59;1020.8;;;21;37.2
54439;BME280;40347;53.848;27.498;2022-09-03T10:13:00;1020.8;;;21.3;36.9
54439;BME280;40347;53.848;27.498;2022-09-03T10:27:58;1020.8;;;22.4;35
54439;BME280;40347;53.848;27.498;2022-09-03T10:33:15;1020.7;;;22.7;34.8
54439;BME280;40347;53.848;27.498;2022-09-03T10:38:41;1020.7;;;22.8;34.4
54439;BME280;40347;53.848;27.498;2022-09-03T10:53:09;1020.7;;;22.6;33.3
54439;BME280;40347;53.848;27.498;2022-09-03T10:58:14;1020.7;;;22.5;33.9
54439;BME280;40347;53.848;27.498;2022-09-03T11:04:16;1020.6;;;22.5;34.2
54439;BME280;40347;53.848;27.498;2022-09-03T11:08:24;1020.6;;;22.4;33.6
54439;BME280;40347;53.848;27.498;2022-09-03T11:13:04;1020.6;;;22.1;32.8
54439;BME280;40347;53.848;27.498;2022-09-03T11:23:00;1020.6;;;21.8;33.6
54439;BME280;40347;53.848;27.498;2022-09-03T11:28:47;1020.6;;;21.7;33.9
54439;BME280;40347;53.848;27.498;2022-09-03T11:33:10;1020.6;;;21.8;34.2
54439;BME280;40347;53.848;27.498;2022-09-03T11:38:25;1020.5;;;21.9;34.2
54439;BME280;40347;53.848;27.498;2022-09-03T11:43:24;1020.5;;;21.8;33.8
54439;BME280;40347;53.848;27.498;2022-09-03T11:47:58;1020.5;;;21.8;33.8
54439;BME280;40347;53.848;27.498;2022-09-03T11:53:10;1020.4;;;21.6;33.1
54439;BME280;40347;53.848;27.498;2022-09-03T11:58:15;1020.4;;;21.6;33.4
54439;BME280;40347;53.848;27.498;2022-09-03T12:03:00;1020.3;;;21.6;33.3
54439;BME280;40347;53.848;27.498;2022-09-03T12:08:30;1020.3;;;21.4;32.9
54439;BME280;40347;53.848;27.498;2022-09-03T12:13:16;1020.2;;;21.3;32.8
54439;BME280;40347;53.848;27.498;2022-09-03T12:18:21;1020.2;;;21.4;33.4
54439;BME280;40347;53.848;27.498;2022-09-03T12:23:11;1020.1;;;21.6;34
54439;BME280;40347;53.848;27.498;2022-09-03T12:28:10;1020.1;;;21.4;34.5
54439;BME280;40347;53.848;27.498;2022-09-03T12:33:12;1020.1;;;21.4;34.6
54439;BME280;40347;53.848;27.498;2022-09-03T12:38:11;1020.1;;;21.4;34.2
54439;BME280;40347;53.848;27.498;2022-09-03T12:43:15;1020.1;;;21.3;34.2
54439;BME280;40347;53.848;27.498;2022-09-03T12:48:12;1020.1;;;21.4;34.7
54439;BME280;40347;53.848;27.498;2022-09-03T12:52:59;1020.1;;;21.3;34.5
54439;BME280;40347;53.848;27.498;2022-09-03T12:58:31;1020.1;;;21.3;34.6
54439;BME280;40347;53.848;27.498;2022-09-03T13:03:02;1020.1;;;21.4;34.1
54439;BME280;40347;53.848;27.498;2022-09-03T13:08:13;1020;;;21.5;33.2
54439;BME280;40347;53.848;27.498;2022-09-03T13:12:59;1019.9;;;21.5;32.2
54439;BME280;40347;53.848;27.498;2022-09-03T13:18:15;1019.9;;;21.6;32
54439;BME280;40347;53.848;27.498;2022-09-03T13:23:33;1019.9;;;21.6;31.9
54439;BME280;40347;53.848;27.498;2022-09-03T13:28:27;1019.8;;;21.5;31.7
54439;BME280;40347;53.848;27.498;2022-09-03T13:33:42;1019.8;;;21.4;31.8
54439;BME280;40347;53.848;27.498;2022-09-03T13:38:43;1019.8;;;21.2;32.2
54439;BME280;40347;53.848;27.498;2022-09-03T13:43:03;1019.8;;;21;32.4
54439;BME280;40347;53.848;27.498;2022-09-03T13:47:59;1019.7;;;20.9;32.7
54439;BME280;40347;53.848;27.498;2022-09-03T13:53:01;1019.7;;;20.8;33.2
54439;BME280;40347;53.848;27.498;2022-09-03T13:58:29;1019.6;;;20.9;32.9
54439;BME280;40347;53.848;27.498;2022-09-03T14:03:11;1019.7;;;20.7;33.2
54439;BME280;40347;53.848;27.498;2022-09-03T14:28:16;1019.5;;;19.8;33.9
54439;BME280;40347;53.848;27.498;2022-09-03T14:33:03;1019.5;;;20;33.8
54439;BME280;40347;53.848;27.498;2022-09-03T14:38:30;1019.5;;;20.3;32.7
54439;BME280;40347;53.848;27.498;2022-09-03T14:48:29;1019.5;;;20;33.4
54439;BME280;40347;53.848;27.498;2022-09-03T14:53:25;1019.4;;;19.9;33.9
54439;BME280;40347;53.848;27.498;2022-09-03T14:58:09;1019.4;;;19.7;34.2
54439;BME280;40347;53.848;27.498;2022-09-03T15:03:36;1019.4;;;19.4;35.1
54439;BME280;40347;53.848;27.498;2022-09-03T15:08:00;1019.4;;;19;35.8
54439;BME280;40347;53.848;27.498;2022-09-03T15:13:31;1019.4;;;18.6;36.7
54439;BME280;40347;53.848;27.498;2022-09-03T15:18:37;1019.4;;;18.4;36.9
54439;BME280;40347;53.848;27.498;2022-09-03T15:23:01;1019.4;;;18.1;37.3
54439;BME280;40347;53.848;27.498;2022-09-03T15:28:18;1019.4;;;17.8;37.8
54439;BME280;40347;53.848;27.498;2022-09-03T15:33:27;1019.3;;;17.6;38.7
54439;BME280;40347;53.848;27.498;2022-09-03T15:38:18;1019.4;;;17.3;39.4
54439;BME280;40347;53.848;27.498;2022-09-03T15:43:03;1019.4;;;17;40.1
54439;BME280;40347;53.848;27.498;2022-09-03T15:48:12;1019.4;;;16.8;40.3
54439;BME280;40347;53.848;27.498;2022-09-03T15:53:44;1019.4;;;16.6;40.8
54439;BME280;40347;53.848;27.498;2022-09-03T15:58:41;1019.4;;;16.4;41.4
54439;BME280;40347;53.848;27.498;2022-09-03T16:03:30;1019.4;;;16.3;42
54439;BME280;40347;53.848;27.498;2022-09-03T16:13:16;1019.4;;;16.1;42.9
54439;BME280;40347;53.848;27.498;2022-09-03T16:18:58;1019.4;;;16.1;42.8
54439;BME280;40347;53.848;27.498;2022-09-03T16:23:22;1019.4;;;16.1;43
54439;BME280;40347;53.848;27.498;2022-09-03T16:28:10;1019.4;;;16;43.6
54439;BME280;40347;53.848;27.498;2022-09-03T16:33:17;1019.3;;;16;43.8
54439;BME280;40347;53.848;27.498;2022-09-03T16:38:33;1019.4;;;16;44.1
54439;BME280;40347;53.848;27.498;2022-09-03T16:43:00;1019.4;;;15.9;44.7
54439;BME280;40347;53.848;27.498;2022-09-03T16:48:26;1019.4;;;15.9;44.7
54439;BME280;40347;53.848;27.498;2022-09-03T16:53:11;1019.4;;;15.9;44.9
54439;BME280;40347;53.848;27.498;2022-09-03T16:58:09;1019.4;;;15.9;45.1
54439;BME280;40347;53.848;27.498;2022-09-03T17:03:20;1019.4;;;15.8;45.2
54439;BME280;40347;53.848;27.498;2022-09-03T17:08:04;1019.5;;;15.9;45.3
54439;BME280;40347;53.848;27.498;2022-09-03T17:13:28;1019.5;;;15.8;45.6
54439;BME280;40347;53.848;27.498;2022-09-03T17:23:49;1019.7;;;15.8;45.6
54439;BME280;40347;53.848;27.498;2022-09-03T17:28:02;1019.7;;;15.8;46
54439;BME280;40347;53.848;27.498;2022-09-03T17:34:01;1019.7;;;15.8;46.1
54439;BME280;40347;53.848;27.498;2022-09-03T17:38:03;1019.8;;;15.8;46.4
54439;BME280;40347;53.848;27.498;2022-09-03T17:43:29;1019.8;;;15.8;47.2
54439;BME280;40347;53.848;27.498;2022-09-03T17:48:45;1019.8;;;15.8;47.2
54439;BME280;40347;53.848;27.498;2022-09-03T17:53:17;1019.9;;;15.7;48.5
54439;BME280;40347;53.848;27.498;2022-09-03T17:58:40;1019.9;;;15.6;49.1
54439;BME280;40347;53.848;27.498;2022-09-03T18:03:54;1020;;;15.5;49.6
54439;BME280;40347;53.848;27.498;2022-09-03T18:08:39;1020;;;15.5;48.9
54439;BME280;40347;53.848;27.498;2022-09-03T18:13:30;1020.1;;;15.3;49.8
54439;BME280;40347;53.848;27.498;2022-09-03T18:18:29;1020;;;15.2;50.1
54439;BME280;40347;53.848;27.498;2022-09-03T18:23:11;1020;;;15;50.8
54439;BME280;40347;53.848;27.498;2022-09-03T18:28:09;1020.1;;;15;50.8
54439;BME280;40347;53.848;27.498;2022-09-03T18:33:08;1020.1;;;14.9;51
54439;BME280;40347;53.848;27.498;2022-09-03T18:38:12;1020.1;;;15;50.9
54439;BME280;40347;53.848;27.498;2022-09-03T18:43:13;1020.1;;;14.9;51.3
54439;BME280;40347;53.848;27.498;2022-09-03T18:48:12;1020.1;;;14.9;51.5
54439;BME280;40347;53.848;27.498;2022-09-03T18:58:16;1020.2;;;14.8;52.2
54439;BME280;40347;53.848;27.498;2022-09-03T19:03:34;1020.2;;;14.8;52
54439;BME280;40347;53.848;27.498;2022-09-03T19:08:24;1020.3;;;14.8;52.1
54439;BME280;40347;53.848;27.498;2022-09-03T19:13:33;1020.2;;;14.8;52.6
54439;BME280;40347;53.848;27.498;2022-09-03T19:22:58;1020.1;;;14.8;53
54439;BME280;40347;53.848;27.498;2022-09-03T19:28:25;1020.1;;;14.8;52.5
54439;BME280;40347;53.848;27.498;2022-09-03T19:33:12;1020.2;;;14.7;53.2
54439;BME280;40347;53.848;27.498;2022-09-03T19:38:16;1020.2;;;14.7;53.1
54439;BME280;40347;53.848;27.498;2022-09-03T19:43:40;1020.2;;;14.6;53.4
54439;BME280;40347;53.848;27.498;2022-09-03T19:48:10;1020.3;;;14.6;53.4
54439;BME280;40347;53.848;27.498;2022-09-03T19:53:11;1020.3;;;14.6;53.7
54439;BME280;40347;53.848;27.498;2022-09-03T19:57:59;1020.4;;;14.5;54.2
54439;BME280;40347;53.848;27.498;2022-09-03T20:03:09;1020.3;;;14.5;53.9
54439;BME280;40347;53.848;27.498;2022-09-03T20:08:08;1020.3;;;14.5;54.2
54439;BME280;40347;53.848;27.498;2022-09-03T20:13:15;1020.4;;;14.5;54.7
54439;BME280;40347;53.848;27.498;2022-09-03T20:18:05;1020.4;;;14.4;54.8
54439;BME280;40347;53.848;27.498;2022-09-03T20:23:00;1020.4;;;14.5;54.5
54439;BME280;40347;53.848;27.498;2022-09-03T20:28:22;1020.4;;;14.5;54.6
54439;BME280;40347;53.848;27.498;2022-09-03T20:38:06;1020.4;;;14.4;55.1
54439;BME280;40347;53.848;27.498;2022-09-03T20:43:17;1020.5;;;14.4;55.3
54439;BME280;40347;53.848;27.498;2022-09-03T20:48:23;1020.5;;;14.3;55.7
54439;BME280;40347;53.848;27.498;2022-09-03T20:58:15;1020.5;;;14.3;55.7
54439;BME280;40347;53.848;27.498;2022-09-03T21:03:02;1020.5;;;14.3;55.6
54439;BME280;40347;53.848;27.498;2022-09-03T21:18:02;1020.6;;;14.3;55.7
54439;BME280;40347;53.848;27.498;2022-09-03T21:23:02;1020.6;;;14.3;55.7
54439;BME280;40347;53.848;27.498;2022-09-03T21:28:21;1020.7;;;14.3;55.7
54439;BME280;40347;53.848;27.498;2022-09-03T21:33:03;1020.7;;;14.2;56.2
54439;BME280;40347;53.848;27.498;2022-09-03T21:38:13;1020.7;;;14.2;56.2
54439;BME280;40347;53.848;27.498;2022-09-03T21:43:23;1020.6;;;14.2;56.1
54439;BME280;40347;53.848;27.498;2022-09-03T21:48:01;1020.6;;;14.2;56.4
54439;BME280;40347;53.848;27.498;2022-09-03T21:53:28;1020.6;;;14.2;56.1
54439;BME280;40347;53.848;27.498;2022-09-03T21:58:01;1020.6;;;14.2;55.9
54439;BME280;40347;53.848;27.498;2022-09-03T22:02:59;1020.6;;;14.2;55.9
54439;BME280;40347;53.848;27.498;2022-09-03T22:08:41;1020.6;;;14.3;56
54439;BME280;40347;53.848;27.498;2022-09-03T22:14:26;1020.7;;;14.3;56.1
54439;BME280;40347;53.848;27.498;2022-09-03T22:18:01;1020.7;;;14.2;56.1
54439;BME280;40347;53.848;27.498;2022-09-03T22:23:12;1020.6;;;14.2;56.4
54439;BME280;40347;53.848;27.498;2022-09-03T22:28:01;1020.6;;;14.1;56.6
54439;BME280;40347;53.848;27.498;2022-09-03T22:33:42;1020.6;;;14;57.1
54439;BME280;40347;53.848;27.498;2022-09-03T22:38:25;1020.6;;;14;57.3
54439;BME280;40347;53.848;27.498;2022-09-03T22:43:25;1020.5;;;14;57.5
54439;BME280;40347;53.848;27.498;2022-09-03T22:48:19;1020.5;;;13.9;57.6
54439;BME280;40347;53.848;27.498;2022-09-03T22:54:18;1020.5;;;13.9;57.4
54439;BME280;40347;53.848;27.498;2022-09-03T22:58:12;1020.5;;;13.9;57.7
54439;BME280;40347;53.848;27.498;2022-09-03T23:03:02;1020.6;;;13.9;57.9
54439;BME280;40347;53.848;27.498;2022-09-03T23:08:10;1020.6;;;14;58
54439;BME280;40347;53.848;27.498;2022-09-03T23:14:04;1020.6;;;14;57.9
54439;BME280;40347;53.848;27.498;2022-09-03T23:18:15;1020.6;;;14;58.3
54439;BME280;40347;53.848;27.498;2022-09-03T23:23:33;1020.6;;;14;58
54439;BME280;40347;53.848;27.498;2022-09-03T23:28:00;1020.7;;;13.9;58.5
54439;BME280;40347;53.848;27.498;2022-09-03T23:33:32;1020.7;;;13.9;58.9
54439;BME280;40347;53.848;27.498;2022-09-03T23:38:20;1020.6;;;13.9;59.1
54439;BME280;40347;53.848;27.498;2022-09-03T23:43:08;1020.6;;;13.9;59.1
54439;BME280;40347;53.848;27.498;2022-09-03T23:48:21;1020.7;;;13.8;59.2
54439;BME280;40347;53.848;27.498;2022-09-03T23:53:46;1020.6;;;13.8;59.2
54439;BME280;40347;53.848;27.498;2022-09-03T23:58:19;1020.6;;;13.7;59.5
